createdAt,value
2022-10-16T00:00:19.197Z,14.33
2022-10-16T00:02:48.513Z,13.10
2022-10-16T00:05:17.930Z,12.57
2022-10-16T00:07:48.754Z,13.43
2022-10-16T00:10:18.167Z,13.27
2022-10-16T00:12:47.366Z,14.00
2022-10-16T00:15:16.555Z,13.47
2022-10-16T00:17:45.739Z,14.00
2022-10-16T00:20:15.023Z,14.07
2022-10-16T00:23:04.557Z,13.83
2022-10-16T00:25:35.109Z,13.93
2022-10-16T00:28:04.405Z,15.37
2022-10-16T00:30:34.138Z,15.73
2022-10-16T00:33:03.605Z,14.53
2022-10-16T00:35:34.107Z,17.77
2022-10-16T00:38:04.891Z,14.47
2022-10-16T00:40:34.239Z,14.47
2022-10-16T00:43:03.423Z,34.30
2022-10-16T00:45:32.998Z,17.00
2022-10-16T00:48:02.145Z,16.40
2022-10-16T00:50:34.169Z,18.87
2022-10-16T00:53:05.658Z,23.33
2022-10-16T00:55:37.661Z,16.20
2022-10-16T00:58:09.643Z,18.27
2022-10-16T01:00:38.978Z,17.80
2022-10-16T01:03:27.413Z,17.30
2022-10-16T01:06:09.219Z,17.10
2022-10-16T01:08:47.039Z,17.70
2022-10-16T01:11:23.974Z,18.70
2022-10-16T01:13:57.775Z,18.80
2022-10-16T01:16:33.398Z,18.13
2022-10-16T01:19:10.825Z,18.17
2022-10-16T01:21:44.675Z,20.57
2022-10-16T01:24:23.418Z,18.23
2022-10-16T01:27:13.312Z,21.77
2022-10-16T01:29:51.561Z,18.83
2022-10-16T01:32:27.615Z,17.10
2022-10-16T01:35:01.429Z,17.77
2022-10-16T01:37:39.456Z,16.70
2022-10-16T01:40:12.891Z,24.57
2022-10-16T01:42:46.613Z,24.97
2022-10-16T01:45:19.274Z,17.70
2022-10-16T01:47:50.148Z,20.07
2022-10-16T01:50:22.304Z,16.37
2022-10-16T01:52:56.624Z,24.90
2022-10-16T01:55:31.405Z,20.70
2022-10-16T01:58:04.220Z,21.70
2022-10-16T02:00:33.985Z,17.63
2022-10-16T02:03:05.915Z,20.23
2022-10-16T02:05:41.350Z,25.47
2022-10-16T02:08:10.550Z,20.17
2022-10-16T02:10:40.723Z,18.83
2022-10-16T02:13:16.041Z,17.63
2022-10-16T02:15:45.319Z,18.70
2022-10-16T02:18:14.723Z,18.30
2022-10-16T02:20:49.258Z,19.23
2022-10-16T02:23:26.055Z,19.87
2022-10-16T02:25:57.018Z,18.97
2022-10-16T02:28:32.017Z,18.47
2022-10-16T02:31:05.873Z,19.53
2022-10-16T02:33:35.898Z,21.90
2022-10-16T02:36:05.608Z,25.00
2022-10-16T02:38:35.580Z,21.77
2022-10-16T02:41:04.629Z,20.80
2022-10-16T02:43:35.231Z,23.63
2022-10-16T02:46:04.618Z,20.93
2022-10-16T02:48:33.613Z,27.27
2022-10-16T02:51:02.693Z,19.87
2022-10-16T02:53:31.802Z,20.80
2022-10-16T02:56:01.021Z,23.63
2022-10-16T02:58:30.062Z,22.97
2022-10-16T03:01:00.659Z,23.83
2022-10-16T03:03:29.698Z,22.33
2022-10-16T03:05:58.703Z,21.00
2022-10-16T03:08:27.857Z,30.73
2022-10-16T03:10:56.980Z,21.27
2022-10-16T03:13:25.998Z,23.30
2022-10-16T03:15:55.119Z,23.30
2022-10-16T03:18:25.649Z,21.50
2022-10-16T03:20:54.688Z,21.17
2022-10-16T03:23:24.050Z,20.47
2022-10-16T03:25:53.561Z,30.50
2022-10-16T03:28:22.591Z,22.03
2022-10-16T03:30:51.788Z,20.73
2022-10-16T03:33:20.812Z,22.03
2022-10-16T03:35:56.026Z,20.00
2022-10-16T03:38:25.147Z,22.97
2022-10-16T03:40:54.257Z,23.03
2022-10-16T03:43:23.293Z,40.27
2022-10-16T03:45:53.378Z,26.37
2022-10-16T03:48:22.412Z,22.40
2022-10-16T03:50:52.899Z,19.83
2022-10-16T03:53:23.452Z,20.03
2022-10-16T03:55:52.609Z,21.07
2022-10-16T03:58:21.868Z,20.90
2022-10-16T04:00:51.219Z,21.50
2022-10-16T04:03:21.199Z,19.27
2022-10-16T04:05:51.807Z,22.60
2022-10-16T04:08:22.699Z,22.57
2022-10-16T04:10:51.902Z,22.43
2022-10-16T04:15:54.889Z,21.87
2022-10-16T04:18:24.430Z,21.23
2022-10-16T04:20:53.388Z,19.37
2022-10-16T04:23:24.643Z,19.70
2022-10-16T04:25:54.712Z,28.33
2022-10-16T04:28:23.709Z,23.80
2022-10-16T04:30:52.843Z,19.00
2022-10-16T04:33:21.891Z,20.00
2022-10-16T04:35:51.264Z,19.97
2022-10-16T04:38:20.349Z,18.27
2022-10-16T04:40:50.924Z,18.33
2022-10-16T04:43:20.255Z,18.10
2022-10-16T04:45:51.785Z,19.47
2022-10-16T04:48:21.199Z,21.33
2022-10-16T04:50:53.081Z,24.70
2022-10-16T04:53:24.644Z,19.60
2022-10-16T04:55:55.595Z,20.03
2022-10-16T04:58:25.707Z,18.30
2022-10-16T05:00:55.252Z,19.37
2022-10-16T05:03:24.567Z,16.97
2022-10-16T05:05:53.849Z,17.50
2022-10-16T05:08:23.043Z,17.63
2022-10-16T05:10:52.327Z,19.07
2022-10-16T05:13:22.864Z,19.87
2022-10-16T05:15:52.469Z,16.07
2022-10-16T05:18:21.902Z,17.33
2022-10-16T05:20:51.308Z,15.97
2022-10-16T05:23:20.473Z,20.20
2022-10-16T05:25:56.320Z,19.93
2022-10-16T05:28:27.179Z,15.87
2022-10-16T05:30:56.381Z,20.07
2022-10-16T05:33:26.766Z,16.27
2022-10-16T05:35:55.812Z,15.80
2022-10-16T05:38:24.950Z,17.13
2022-10-16T05:40:55.227Z,15.23
2022-10-16T05:43:25.809Z,16.80
2022-10-16T05:45:58.813Z,16.83
2022-10-16T05:48:28.251Z,15.63
2022-10-16T05:51:02.140Z,14.40
2022-10-16T05:53:33.223Z,15.70
2022-10-16T05:56:08.956Z,14.03
2022-10-16T05:58:43.121Z,16.63
2022-10-16T06:01:15.063Z,15.13
2022-10-16T06:03:44.519Z,15.47
2022-10-16T06:06:15.393Z,16.20
2022-10-16T06:08:46.497Z,14.77
2022-10-16T06:11:17.678Z,14.68
2022-10-16T06:13:51.350Z,15.02
2022-10-16T06:16:20.567Z,13.68
2022-10-16T06:18:49.773Z,13.75
2022-10-16T06:21:21.109Z,14.43
2022-10-16T06:23:50.915Z,14.52
2022-10-16T06:26:21.740Z,16.67
2022-10-16T06:28:52.522Z,12.90
2022-10-16T06:31:22.458Z,15.90
2022-10-16T06:33:53.713Z,13.65
2022-10-16T06:36:23.154Z,12.95
2022-10-16T06:38:52.684Z,12.05
2022-10-16T06:41:23.540Z,13.80
2022-10-16T06:43:54.542Z,13.45
2022-10-16T06:46:25.472Z,14.35
2022-10-16T06:48:55.092Z,13.55
2022-10-16T06:51:25.188Z,12.00
2022-10-16T06:54:04.183Z,12.05
2022-10-16T06:56:35.072Z,13.07
2022-10-16T06:59:06.209Z,12.60
2022-10-16T07:01:35.654Z,12.05
2022-10-16T07:04:05.152Z,14.88
2022-10-16T07:06:36.356Z,11.75
2022-10-16T07:09:12.570Z,17.30
2022-10-16T07:11:42.440Z,13.07
2022-10-16T07:14:19.307Z,12.80
2022-10-16T07:16:48.852Z,13.85
2022-10-16T07:19:19.143Z,14.25
2022-10-16T07:21:48.189Z,12.90
2022-10-16T07:24:18.582Z,12.60
2022-10-16T07:26:48.654Z,13.25
2022-10-16T07:29:21.628Z,13.57
2022-10-16T07:31:51.352Z,13.30
2022-10-16T07:34:22.796Z,13.82
2022-10-16T07:36:52.924Z,14.48
2022-10-16T07:39:22.085Z,14.80
2022-10-16T07:41:51.084Z,14.93
2022-10-16T07:44:21.630Z,15.73
2022-10-16T07:46:50.714Z,12.93
2022-10-16T07:49:20.121Z,13.27
2022-10-16T07:51:49.202Z,13.27
2022-10-16T07:54:18.255Z,12.90
2022-10-16T07:56:47.358Z,12.60
2022-10-16T07:59:16.659Z,12.15
2022-10-16T08:01:47.308Z,12.18
2022-10-16T08:04:16.428Z,12.38
2022-10-16T08:06:45.424Z,12.48
2022-10-16T08:09:14.497Z,11.90
2022-10-16T08:11:43.649Z,13.07
2022-10-16T08:14:12.723Z,12.55
2022-10-16T08:16:42.570Z,11.73
2022-10-16T08:19:16.843Z,12.18
2022-10-16T08:21:51.666Z,13.48
2022-10-16T08:24:20.775Z,11.38
2022-10-16T08:26:49.921Z,11.73
2022-10-16T08:29:19.031Z,12.13
2022-10-16T08:31:49.643Z,11.02
2022-10-16T08:34:20.124Z,11.85
2022-10-16T08:36:49.428Z,11.70
2022-10-16T08:39:18.980Z,10.93
2022-10-16T08:42:18.300Z,11.85
2022-10-16T08:45:07.095Z,11.32
2022-10-16T08:47:47.535Z,11.45
2022-10-16T08:50:25.337Z,11.48
2022-10-16T08:52:54.464Z,10.85
2022-10-16T08:55:34.758Z,10.95
2022-10-16T08:58:04.054Z,11.32
2022-10-16T09:00:33.426Z,11.27
2022-10-16T09:03:10.560Z,10.95
2022-10-16T09:05:54.865Z,11.73
2022-10-16T09:08:33.544Z,10.85
2022-10-16T09:11:10.954Z,12.02
2022-10-16T09:13:51.444Z,11.15
2022-10-16T09:16:26.522Z,11.13
2022-10-16T09:19:03.430Z,11.57
2022-10-16T09:21:37.866Z,11.18
2022-10-16T09:24:15.065Z,10.90
2022-10-16T09:26:44.195Z,10.77
2022-10-16T09:29:15.310Z,10.85
2022-10-16T09:31:45.327Z,11.27
2022-10-16T09:34:26.396Z,11.48
2022-10-16T09:36:58.699Z,10.88
2022-10-16T09:39:27.730Z,11.13
2022-10-16T09:41:58.663Z,13.50
2022-10-16T09:44:31.654Z,11.35
2022-10-16T09:47:05.180Z,14.02
2022-10-16T09:49:34.539Z,10.15
2022-10-16T09:52:14.018Z,11.13
2022-10-16T09:54:52.763Z,9.98
2022-10-16T09:57:22.252Z,11.50
2022-10-16T09:59:52.922Z,11.05
2022-10-16T10:02:31.040Z,12.32
2022-10-16T10:05:00.278Z,11.77
2022-10-16T10:07:35.226Z,12.52
2022-10-16T10:10:07.875Z,11.30
2022-10-16T10:12:39.195Z,10.68
2022-10-16T10:15:10.431Z,10.20
2022-10-16T10:17:51.050Z,10.77
2022-10-16T10:20:30.028Z,10.15
2022-10-16T10:23:01.399Z,10.73
2022-10-16T10:25:52.371Z,9.88
2022-10-16T10:28:33.597Z,9.98
2022-10-16T10:31:09.388Z,9.73
2022-10-16T10:33:47.469Z,9.57
2022-10-16T10:36:30.469Z,11.40
2022-10-16T10:39:04.813Z,8.93
2022-10-16T10:42:05.440Z,9.60
2022-10-16T10:44:48.550Z,10.77
2022-10-16T10:47:26.668Z,10.48
2022-10-16T10:50:04.562Z,9.50
2022-10-16T10:52:49.154Z,10.45
2022-10-16T10:55:26.993Z,11.95
2022-10-16T10:58:12.735Z,11.68
2022-10-16T11:00:53.084Z,9.15
2022-10-16T11:03:37.669Z,9.88
2022-10-16T11:06:10.315Z,9.38
2022-10-16T11:08:43.669Z,12.80
2022-10-16T11:11:19.718Z,9.90
2022-10-16T11:13:58.053Z,9.38
2022-10-16T11:16:31.399Z,10.82
2022-10-16T11:19:07.241Z,9.75
2022-10-16T11:21:43.784Z,12.90
2022-10-16T11:24:22.214Z,9.98
2022-10-16T11:26:54.636Z,9.90
2022-10-16T11:29:32.206Z,10.48
2022-10-16T11:32:04.212Z,9.60
2022-10-16T11:34:42.374Z,12.35
2022-10-16T11:37:16.939Z,9.55
2022-10-16T11:39:48.078Z,9.85
2022-10-16T11:42:24.099Z,9.18
2022-10-16T11:45:01.839Z,10.18
2022-10-16T11:47:58.307Z,10.07
2022-10-16T11:50:31.230Z,9.63
2022-10-16T11:53:07.677Z,10.75
2022-10-16T11:55:41.882Z,10.30
2022-10-16T11:58:25.264Z,10.15
2022-10-16T12:01:03.950Z,9.23
2022-10-16T12:03:39.754Z,9.25
2022-10-16T12:06:21.553Z,9.05
2022-10-16T12:08:50.970Z,9.75
2022-10-16T12:11:33.273Z,9.30
2022-10-16T12:14:36.916Z,9.20
2022-10-16T12:17:27.916Z,9.75
2022-10-16T12:20:02.159Z,9.52
2022-10-16T12:22:36.870Z,10.65
2022-10-16T12:25:21.662Z,9.93
2022-10-16T12:27:58.002Z,8.77
2022-10-16T12:30:33.642Z,10.15
2022-10-16T12:33:07.252Z,8.75
2022-10-16T12:35:38.698Z,9.38
2022-10-16T12:38:10.944Z,9.07
2022-10-16T12:40:40.722Z,10.00
2022-10-16T12:43:31.208Z,9.25
2022-10-16T12:46:07.858Z,9.73
2022-10-16T12:48:49.229Z,9.68
2022-10-16T12:51:36.583Z,8.82
2022-10-16T12:54:07.748Z,11.32
2022-10-16T12:56:48.825Z,10.45
2022-10-16T12:59:28.344Z,13.05
2022-10-16T13:02:22.304Z,12.80
2022-10-16T13:05:11.359Z,9.52
2022-10-16T13:07:51.335Z,9.65
2022-10-16T13:10:27.905Z,10.20
2022-10-16T13:13:17.268Z,9.77
2022-10-16T13:16:01.203Z,9.60
2022-10-16T13:18:42.342Z,16.92
2022-10-16T13:21:22.540Z,9.18
2022-10-16T13:24:02.780Z,10.45
2022-10-16T13:26:43.151Z,10.93
2022-10-16T13:29:12.850Z,9.30
2022-10-16T13:31:42.692Z,9.07
2022-10-16T13:34:18.270Z,9.45
2022-10-16T13:36:49.217Z,9.32
2022-10-16T13:39:23.663Z,8.70
2022-10-16T13:42:08.008Z,8.98
2022-10-16T13:44:43.305Z,9.15
2022-10-16T13:47:19.802Z,10.40
2022-10-16T13:50:02.269Z,9.27
2022-10-16T13:52:32.006Z,8.88
2022-10-16T13:55:02.394Z,9.25
2022-10-16T13:57:32.020Z,8.77
2022-10-16T14:00:01.398Z,10.52
2022-10-16T14:02:36.556Z,12.13
2022-10-16T14:05:12.635Z,13.23
2022-10-16T14:07:42.176Z,10.65
2022-10-16T14:10:25.134Z,9.43
2022-10-16T14:12:59.570Z,13.55
2022-10-16T14:15:29.026Z,8.52
2022-10-16T14:17:58.544Z,8.90
2022-10-16T14:20:31.096Z,10.63
2022-10-16T14:23:06.008Z,8.68
2022-10-16T14:25:35.664Z,9.20
2022-10-16T14:28:07.960Z,10.07
2022-10-16T14:30:39.043Z,10.63
2022-10-16T14:33:22.692Z,9.68
2022-10-16T14:36:07.471Z,8.93
2022-10-16T14:38:37.341Z,8.60
2022-10-16T14:41:07.250Z,8.63
2022-10-16T14:43:39.165Z,10.13
2022-10-16T14:46:14.686Z,11.55
2022-10-16T14:48:45.004Z,11.55
2022-10-16T14:51:17.479Z,10.85
2022-10-16T14:53:46.859Z,10.02
2022-10-16T14:56:21.013Z,10.10
2022-10-16T14:58:50.905Z,10.07
2022-10-16T15:01:20.754Z,8.77
2022-10-16T15:03:50.546Z,11.55
2022-10-16T15:06:21.793Z,10.13
2022-10-16T15:08:51.076Z,10.00
2022-10-16T15:11:21.448Z,11.07
2022-10-16T15:13:50.632Z,9.65
2022-10-16T15:16:20.004Z,11.30
2022-10-16T15:18:49.184Z,9.07
2022-10-16T15:21:29.001Z,9.23
2022-10-16T15:23:58.915Z,10.00
2022-10-16T15:26:29.396Z,9.73
2022-10-16T15:28:58.668Z,9.45
2022-10-16T15:31:27.763Z,9.40
2022-10-16T15:34:02.809Z,10.80
2022-10-16T15:36:37.940Z,10.52
2022-10-16T15:39:08.034Z,10.68
2022-10-16T15:41:37.265Z,14.77
2022-10-16T15:44:06.502Z,10.23
2022-10-16T15:46:36.061Z,14.32
2022-10-16T15:49:05.873Z,11.00
2022-10-16T15:51:40.019Z,12.85
2022-10-16T15:54:10.264Z,12.10
2022-10-16T15:56:39.557Z,11.93
2022-10-16T15:59:13.334Z,11.73
2022-10-16T16:01:45.432Z,12.57
2022-10-16T16:04:42.415Z,10.27
2022-10-16T16:07:08.477Z,13.25
2022-10-16T16:09:37.812Z,10.77
2022-10-16T16:12:07.076Z,13.20
2022-10-16T16:14:38.541Z,9.90
2022-10-16T16:17:21.214Z,12.18
2022-10-16T16:19:51.498Z,11.18
2022-10-16T16:22:22.395Z,10.65
2022-10-16T16:24:51.667Z,12.32
2022-10-16T16:27:21.455Z,10.90
2022-10-16T16:29:51.321Z,10.50
2022-10-16T16:32:23.950Z,11.15
2022-10-16T16:34:55.045Z,11.43
2022-10-16T16:37:25.905Z,10.57
2022-10-16T16:39:57.019Z,11.15
2022-10-16T16:42:26.617Z,12.10
2022-10-16T16:44:56.263Z,11.35
2022-10-16T16:47:26.479Z,10.85
2022-10-16T16:50:00.788Z,10.50
2022-10-16T16:52:41.663Z,11.73
2022-10-16T16:55:14.533Z,17.23
2022-10-16T16:57:43.944Z,12.88
2022-10-16T17:00:16.634Z,12.05
2022-10-16T17:02:46.324Z,12.70
2022-10-16T17:05:16.198Z,11.40
2022-10-16T17:07:47.996Z,13.10
2022-10-16T17:10:17.834Z,11.75
2022-10-16T17:12:47.458Z,11.88
2022-10-16T17:15:16.871Z,11.57
2022-10-16T17:17:46.587Z,12.45
2022-10-16T17:20:16.464Z,12.13
2022-10-16T17:22:47.771Z,13.43
2022-10-16T17:25:18.717Z,12.48
2022-10-16T17:27:50.431Z,12.52
2022-10-16T17:30:23.643Z,12.90
2022-10-16T17:32:54.272Z,12.27
2022-10-16T17:35:26.021Z,13.38
2022-10-16T17:37:59.934Z,13.30
2022-10-16T17:40:29.244Z,14.07
2022-10-16T17:43:01.450Z,14.95
2022-10-16T17:45:31.672Z,12.23
2022-10-16T17:48:07.084Z,15.07
2022-10-16T17:50:36.947Z,13.45
2022-10-16T17:53:08.755Z,13.32
2022-10-16T17:55:43.424Z,16.40
2022-10-16T17:58:14.933Z,17.60
2022-10-16T18:00:55.283Z,16.08
2022-10-16T18:03:27.502Z,16.60
2022-10-16T18:06:00.403Z,19.98
2022-10-16T18:08:31.518Z,15.98
2022-10-16T18:11:00.882Z,16.60
2022-10-16T18:13:30.480Z,15.00
2022-10-16T18:16:05.152Z,15.50
2022-10-16T18:18:35.068Z,15.65
2022-10-16T18:21:07.800Z,15.50
2022-10-16T18:23:39.286Z,15.35
2022-10-16T18:26:11.156Z,14.95
2022-10-16T18:28:41.313Z,15.02
2022-10-16T18:31:13.984Z,15.52
2022-10-16T18:33:48.517Z,14.95
2022-10-16T18:36:20.422Z,16.50
2022-10-16T18:38:53.193Z,15.15
2022-10-16T18:41:38.472Z,15.85
2022-10-16T18:44:13.212Z,15.20
2022-10-16T18:46:46.751Z,15.93
2022-10-16T18:49:16.837Z,15.10
2022-10-16T18:51:47.750Z,15.35
2022-10-16T18:54:19.762Z,15.70
2022-10-16T18:56:51.211Z,16.63
2022-10-16T18:59:23.962Z,15.98
2022-10-16T19:01:53.669Z,15.52
2022-10-16T19:04:24.657Z,16.83
2022-10-16T19:06:55.293Z,16.48
2022-10-16T19:09:27.503Z,18.10
2022-10-16T19:11:58.178Z,16.92
2022-10-16T19:14:30.715Z,18.17
2022-10-16T19:17:02.311Z,15.98
2022-10-16T19:19:32.448Z,18.35
2022-10-16T19:22:15.322Z,15.07
2022-10-16T19:24:47.383Z,16.05
2022-10-16T19:27:16.839Z,18.70
2022-10-16T19:29:46.629Z,16.67
2022-10-16T19:32:21.078Z,17.30
2022-10-16T19:34:52.291Z,17.13
2022-10-16T19:37:26.094Z,16.27
2022-10-16T19:39:56.807Z,17.58
2022-10-16T19:42:26.194Z,18.35
2022-10-16T19:44:55.993Z,16.83
2022-10-16T19:47:25.333Z,17.73
2022-10-16T19:49:54.843Z,16.33
2022-10-16T19:52:26.895Z,16.83
2022-10-16T19:54:58.811Z,17.13
2022-10-16T19:57:28.299Z,16.27
2022-10-16T19:59:57.574Z,17.05
2022-10-16T20:02:26.829Z,16.88
2022-10-16T20:04:56.695Z,17.38
2022-10-16T20:07:28.227Z,15.45
2022-10-16T20:10:01.108Z,16.90
2022-10-16T20:12:30.561Z,15.95
2022-10-16T20:14:59.946Z,15.65
2022-10-16T20:17:29.549Z,18.35
2022-10-16T20:19:59.254Z,16.27
2022-10-16T20:22:28.423Z,17.63
2022-10-16T20:24:57.643Z,15.20
2022-10-16T20:27:29.763Z,16.63
2022-10-16T20:29:59.402Z,15.32
2022-10-16T20:32:28.775Z,16.75
2022-10-16T20:34:58.242Z,15.73
2022-10-16T20:37:27.670Z,16.25
2022-10-16T20:39:56.961Z,15.32
2022-10-16T20:42:27.701Z,15.07
2022-10-16T20:44:56.896Z,16.02
2022-10-16T20:47:26.152Z,15.75
2022-10-16T20:49:55.456Z,16.35
2022-10-16T20:52:27.614Z,17.17
2022-10-16T20:54:56.795Z,15.73
2022-10-16T20:57:27.625Z,16.08
2022-10-16T20:59:56.883Z,17.83
2022-10-16T21:02:26.010Z,18.38
2022-10-16T21:04:55.406Z,17.38
2022-10-16T21:07:24.763Z,16.23
2022-10-16T21:09:55.932Z,16.05
2022-10-16T21:12:25.475Z,16.25
2022-10-16T21:15:13.943Z,15.32
2022-10-16T21:17:44.159Z,15.93
2022-10-16T21:20:13.283Z,15.60
2022-10-16T21:22:42.320Z,18.05
2022-10-16T21:25:11.616Z,16.50
2022-10-16T21:27:41.684Z,17.45
2022-10-16T21:30:13.048Z,15.45
2022-10-16T21:32:42.686Z,17.52
2022-10-16T21:35:11.826Z,16.40
2022-10-16T21:37:40.965Z,17.08
2022-10-16T21:40:11.402Z,15.82
2022-10-16T21:42:40.577Z,17.08
2022-10-16T21:45:11.851Z,16.10
2022-10-16T21:47:40.982Z,19.13
2022-10-16T21:50:10.722Z,17.80
2022-10-16T21:52:39.852Z,17.05
2022-10-16T21:55:10.229Z,17.50
2022-10-16T21:57:39.526Z,16.83
2022-10-16T22:00:11.135Z,20.08
2022-10-16T22:02:41.796Z,17.05
2022-10-16T22:09:14.337Z,17.05
2022-10-16T22:11:45.664Z,17.40
2022-10-16T22:14:17.656Z,17.35
2022-10-16T22:16:47.663Z,16.75
2022-10-16T22:19:21.146Z,22.08
2022-10-16T22:21:53.291Z,17.77
2022-10-16T22:24:23.035Z,17.27
2022-10-16T22:26:52.581Z,16.50
2022-10-16T22:29:21.686Z,17.38
2022-10-16T22:31:53.386Z,16.53
2022-10-16T22:34:24.163Z,17.47
2022-10-16T22:36:56.800Z,16.83
2022-10-16T22:39:31.704Z,21.95
2022-10-16T22:42:01.142Z,16.92
2022-10-16T22:44:30.907Z,17.27
2022-10-16T22:47:00.326Z,18.15
2022-10-16T22:49:31.080Z,18.42
2022-10-16T22:52:02.667Z,18.02
2022-10-16T22:54:31.738Z,18.90
2022-10-16T22:57:00.907Z,17.00
2022-10-16T22:59:30.253Z,19.17
2022-10-16T23:01:59.406Z,17.83
2022-10-16T23:04:30.251Z,17.17
2022-10-16T23:07:00.412Z,18.57
2022-10-16T23:09:29.533Z,17.80
2022-10-16T23:11:58.978Z,18.00
2022-10-16T23:14:28.335Z,16.98
2022-10-16T23:16:57.742Z,19.67
2022-10-16T23:19:27.148Z,18.27
2022-10-16T23:21:57.866Z,17.63
2022-10-16T23:24:27.214Z,18.23
2022-10-16T23:26:56.618Z,18.20
2022-10-16T23:29:26.016Z,18.50
2022-10-16T23:31:55.894Z,17.67
2022-10-16T23:34:25.303Z,18.67
2022-10-16T23:36:54.504Z,15.93
2022-10-16T23:39:25.173Z,16.40
2022-10-16T23:41:54.488Z,17.33
2022-10-16T23:44:23.834Z,18.50
2022-10-16T23:46:53.017Z,16.73
2022-10-16T23:49:22.341Z,19.63
2022-10-16T23:51:51.519Z,18.37
2022-10-16T23:54:20.781Z,18.33
2022-10-16T23:56:51.414Z,17.70
2022-10-16T23:59:20.751Z,17.70
